createdAt,value
2017-12-22T00:00:52.804Z,100.00
2017-12-22T00:03:20.297Z,100.00
2017-12-22T00:05:47.801Z,100.00
2017-12-22T00:08:15.323Z,100.00
2017-12-22T00:10:42.843Z,100.00
2017-12-22T00:13:10.359Z,100.00
2017-12-22T00:15:46.661Z,100.00
2017-12-22T00:18:14.181Z,100.00
2017-12-22T00:20:41.761Z,100.00
2017-12-22T00:23:09.225Z,100.00
2017-12-22T00:25:36.732Z,100.00
2017-12-22T00:28:04.263Z,100.00
2017-12-22T00:30:31.776Z,100.00
2017-12-22T00:32:59.286Z,100.00
2017-12-22T00:35:26.795Z,100.00
2017-12-22T00:37:54.303Z,100.00
2017-12-22T00:40:21.823Z,100.00
2017-12-22T00:42:49.309Z,100.00
2017-12-22T00:45:16.800Z,100.00
2017-12-22T00:47:44.309Z,100.00
2017-12-22T00:50:11.804Z,100.00
2017-12-22T00:52:39.326Z,100.00
2017-12-22T00:55:06.931Z,100.00
2017-12-22T00:57:34.429Z,100.00
2017-12-22T01:00:01.917Z,100.00
2017-12-22T01:02:29.454Z,100.00
2017-12-22T01:04:56.971Z,100.00
2017-12-22T01:07:24.489Z,100.00
2017-12-22T01:09:52.035Z,100.00
2017-12-22T01:12:19.543Z,100.00
2017-12-22T01:14:47.836Z,100.00
2017-12-22T01:17:20.969Z,100.00
2017-12-22T01:19:48.468Z,100.00
2017-12-22T01:22:15.989Z,100.00
2017-12-22T01:24:43.512Z,100.00
2017-12-22T01:27:11.009Z,100.00
2017-12-22T01:29:38.566Z,100.00
2017-12-22T01:32:11.175Z,100.00
2017-12-22T01:34:38.712Z,100.00
2017-12-22T01:37:06.206Z,100.00
2017-12-22T01:39:33.728Z,100.00
2017-12-22T01:42:01.239Z,100.00
2017-12-22T01:44:28.734Z,100.00
2017-12-22T01:46:56.255Z,100.00
2017-12-22T01:49:23.761Z,100.00
2017-12-22T01:51:51.920Z,100.00
2017-12-22T01:54:19.431Z,100.00
2017-12-22T01:56:46.967Z,100.00
2017-12-22T01:59:14.480Z,100.00
2017-12-22T02:01:41.998Z,100.00
2017-12-22T02:04:09.499Z,100.00
2017-12-22T02:06:36.993Z,100.00
2017-12-22T02:09:04.519Z,100.00
2017-12-22T02:11:32.020Z,100.00
2017-12-22T02:13:59.535Z,100.00
2017-12-22T02:16:27.428Z,100.00
2017-12-22T02:18:54.929Z,100.00
2017-12-22T02:21:22.442Z,100.00
2017-12-22T02:23:49.941Z,100.00
2017-12-22T02:26:17.441Z,100.00
2017-12-22T02:28:44.963Z,100.00
2017-12-22T02:31:13.103Z,100.00
2017-12-22T02:33:40.597Z,100.00
2017-12-22T02:36:08.136Z,100.00
2017-12-22T02:38:35.641Z,100.00
2017-12-22T02:41:03.175Z,100.00
2017-12-22T02:43:30.690Z,100.00
2017-12-22T02:45:58.219Z,100.00
2017-12-22T02:48:25.744Z,100.00
2017-12-22T02:50:53.255Z,100.00
2017-12-22T02:53:20.778Z,100.00
2017-12-22T02:55:48.309Z,100.00
2017-12-22T02:58:15.843Z,100.00
2017-12-22T03:00:43.353Z,100.00
2017-12-22T03:03:10.846Z,100.00
2017-12-22T03:05:38.337Z,100.00
2017-12-22T03:08:05.836Z,100.00
2017-12-22T03:10:33.352Z,100.00
2017-12-22T03:13:00.852Z,100.00
2017-12-22T03:15:28.345Z,100.00
2017-12-22T03:17:56.584Z,100.00
2017-12-22T03:20:24.080Z,100.00
2017-12-22T03:22:51.574Z,100.00
2017-12-22T03:25:19.131Z,100.00
2017-12-22T03:27:46.691Z,100.00
2017-12-22T03:30:15.073Z,100.00
2017-12-22T03:32:47.853Z,100.00
2017-12-22T03:35:15.381Z,100.00
2017-12-22T03:37:43.683Z,100.00
2017-12-22T03:40:11.259Z,100.00
2017-12-22T03:42:38.773Z,100.00
2017-12-22T03:45:06.278Z,100.00
2017-12-22T03:47:33.800Z,100.00
2017-12-22T03:50:01.298Z,100.00
2017-12-22T03:52:28.800Z,100.00
2017-12-22T03:54:56.323Z,100.00
2017-12-22T03:57:23.833Z,100.00
2017-12-22T03:59:51.340Z,100.00
2017-12-22T04:02:18.851Z,100.00
2017-12-22T04:04:46.357Z,100.00
2017-12-22T04:07:13.849Z,100.00
2017-12-22T04:09:41.361Z,100.00
2017-12-22T04:12:08.879Z,100.00
2017-12-22T04:14:36.402Z,100.00
2017-12-22T04:17:03.919Z,100.00
2017-12-22T04:19:31.424Z,100.00
2017-12-22T04:21:58.941Z,100.00
2017-12-22T04:24:26.475Z,100.00
2017-12-22T04:26:53.995Z,100.00
2017-12-22T04:29:21.508Z,100.00
2017-12-22T04:31:49.030Z,100.00
2017-12-22T04:34:16.538Z,100.00
2017-12-22T04:36:44.031Z,100.00
2017-12-22T04:39:11.542Z,100.00
2017-12-22T04:41:39.037Z,100.00
2017-12-22T04:44:06.541Z,100.00
2017-12-22T04:46:34.040Z,100.00
2017-12-22T04:49:01.525Z,100.00
2017-12-22T04:51:29.027Z,100.00
2017-12-22T04:53:56.546Z,100.00
2017-12-22T04:56:24.033Z,100.00
2017-12-22T04:58:51.534Z,100.00
2017-12-22T05:01:19.062Z,100.00
2017-12-22T05:03:46.566Z,100.00
2017-12-22T05:06:14.686Z,100.00
2017-12-22T05:08:42.185Z,100.00
2017-12-22T05:11:09.672Z,100.00
2017-12-22T05:13:37.181Z,100.00
2017-12-22T05:16:04.711Z,100.00
2017-12-22T05:18:32.449Z,100.00
2017-12-22T05:21:00.011Z,100.00
2017-12-22T05:23:27.523Z,100.00
2017-12-22T05:25:55.926Z,100.00
2017-12-22T05:28:23.497Z,100.00
2017-12-22T05:30:51.015Z,100.00
2017-12-22T05:33:18.513Z,100.00
2017-12-22T05:35:46.029Z,100.00
2017-12-22T05:38:13.544Z,100.00
2017-12-22T05:40:41.059Z,100.00
2017-12-22T05:43:08.568Z,100.00
2017-12-22T05:45:36.533Z,100.00
2017-12-22T05:48:04.029Z,100.00
2017-12-22T05:50:31.533Z,100.00
2017-12-22T05:52:59.046Z,100.00
2017-12-22T05:55:26.556Z,100.00
2017-12-22T05:57:54.079Z,100.00
2017-12-22T06:00:21.827Z,100.00
2017-12-22T06:02:49.344Z,100.00
2017-12-22T06:05:16.885Z,100.00
2017-12-22T06:07:44.397Z,100.00
2017-12-22T06:10:11.903Z,100.00
2017-12-22T06:12:39.426Z,100.00
2017-12-22T06:15:06.933Z,100.00
2017-12-22T06:17:34.429Z,100.00
2017-12-22T06:20:01.938Z,100.00
2017-12-22T06:22:29.463Z,100.00
2017-12-22T06:24:57.006Z,100.00
2017-12-22T06:27:24.528Z,100.00
2017-12-22T06:29:52.055Z,100.00
2017-12-22T06:32:19.578Z,100.00
2017-12-22T06:34:47.084Z,100.00
2017-12-22T06:37:14.622Z,100.00
2017-12-22T06:39:42.174Z,100.00
2017-12-22T06:42:09.720Z,100.00
2017-12-22T06:44:37.230Z,100.00
2017-12-22T06:47:04.728Z,100.00
2017-12-22T06:49:32.240Z,100.00
2017-12-22T06:51:59.821Z,100.00
2017-12-22T06:54:27.313Z,100.00
2017-12-22T06:56:54.860Z,100.00
2017-12-22T06:59:22.353Z,100.00
2017-12-22T07:01:49.876Z,100.00
2017-12-22T07:04:17.400Z,100.00
2017-12-22T07:06:44.911Z,100.00
2017-12-22T07:09:12.454Z,100.00
2017-12-22T07:11:39.988Z,100.00
2017-12-22T07:14:07.491Z,100.00
2017-12-22T07:16:35.025Z,100.00
2017-12-22T07:19:02.539Z,100.00
2017-12-22T07:21:30.073Z,100.00
2017-12-22T07:23:57.612Z,100.00
2017-12-22T07:26:25.129Z,100.00
2017-12-22T07:28:52.644Z,100.00
2017-12-22T07:31:20.140Z,100.00
2017-12-22T07:33:47.657Z,100.00
2017-12-22T07:36:15.168Z,100.00
2017-12-22T07:38:42.680Z,100.00
2017-12-22T07:41:17.602Z,100.00
2017-12-22T07:43:45.127Z,100.00
2017-12-22T07:46:12.629Z,100.00
2017-12-22T07:48:40.119Z,100.00
2017-12-22T07:51:07.685Z,100.00
2017-12-22T07:53:35.184Z,100.00
2017-12-22T07:56:02.665Z,100.00
2017-12-22T07:58:30.165Z,100.00
2017-12-22T08:00:57.663Z,100.00
2017-12-22T08:03:25.160Z,100.00
2017-12-22T08:05:52.664Z,100.00
2017-12-22T08:08:20.152Z,100.00
2017-12-22T08:10:47.661Z,100.00
2017-12-22T08:13:15.177Z,100.00
2017-12-22T08:15:42.687Z,100.00
2017-12-22T08:18:10.185Z,100.00
2017-12-22T08:20:38.085Z,100.00
2017-12-22T08:23:05.828Z,100.00
2017-12-22T08:25:33.337Z,100.00
2017-12-22T08:28:02.001Z,100.00
2017-12-22T08:30:29.529Z,100.00
2017-12-22T08:32:57.020Z,100.00
2017-12-22T08:35:24.513Z,100.00
2017-12-22T08:37:52.021Z,100.00
2017-12-22T08:40:21.896Z,100.00
2017-12-22T08:42:49.945Z,100.00
2017-12-22T08:45:17.458Z,100.00
2017-12-22T08:47:45.411Z,100.00
2017-12-22T08:50:12.919Z,100.00
2017-12-22T08:52:40.428Z,100.00
2017-12-22T08:55:07.992Z,100.00
2017-12-22T08:57:35.461Z,100.00
2017-12-22T09:00:02.965Z,100.00
2017-12-22T09:02:30.471Z,100.00
2017-12-22T09:04:57.975Z,100.00
2017-12-22T09:07:25.491Z,100.00
2017-12-22T09:09:52.988Z,100.00
2017-12-22T09:12:20.506Z,100.00
2017-12-22T09:14:48.023Z,100.00
2017-12-22T09:17:15.540Z,100.00
2017-12-22T09:19:43.037Z,100.00
2017-12-22T09:22:10.595Z,100.00
2017-12-22T09:24:38.162Z,100.00
2017-12-22T09:27:05.708Z,100.00
2017-12-22T09:29:33.230Z,100.00
2017-12-22T09:32:00.739Z,100.00
2017-12-22T09:34:28.430Z,100.00
2017-12-22T09:36:55.952Z,100.00
2017-12-22T09:39:23.453Z,100.00
2017-12-22T09:41:50.962Z,100.00
2017-12-22T09:44:18.464Z,100.00
2017-12-22T09:46:45.970Z,100.00
2017-12-22T09:49:14.105Z,100.00
2017-12-22T09:51:42.392Z,100.00
2017-12-22T09:54:10.550Z,100.00
2017-12-22T09:56:38.063Z,100.00
2017-12-22T09:59:05.566Z,100.00
2017-12-22T10:01:33.068Z,100.00
2017-12-22T10:04:00.577Z,100.00
2017-12-22T10:06:28.868Z,100.00
2017-12-22T10:08:56.360Z,100.00
2017-12-22T10:11:23.856Z,100.00
2017-12-22T10:13:51.395Z,100.00
2017-12-22T10:16:18.932Z,100.00
2017-12-22T10:18:46.793Z,100.00
2017-12-22T10:21:14.314Z,100.00
2017-12-22T10:23:41.820Z,100.00
2017-12-22T10:26:09.324Z,100.00
2017-12-22T10:28:36.833Z,100.00
2017-12-22T10:31:05.225Z,100.00
2017-12-22T10:33:32.772Z,100.00
2017-12-22T10:36:00.273Z,100.00
2017-12-22T10:38:27.785Z,100.00
2017-12-22T10:40:55.295Z,100.00
2017-12-22T10:43:22.811Z,100.00
2017-12-22T10:45:51.299Z,100.00
2017-12-22T10:48:18.794Z,100.00
2017-12-22T10:50:46.319Z,100.00
2017-12-22T10:53:15.107Z,100.00
2017-12-22T10:55:42.634Z,100.00
2017-12-22T10:58:10.144Z,100.00
2017-12-22T11:00:37.692Z,100.00
2017-12-22T11:03:05.222Z,100.00
2017-12-22T11:05:33.159Z,100.00
2017-12-22T11:08:01.965Z,100.00
2017-12-22T11:10:29.556Z,100.00
2017-12-22T11:12:57.064Z,100.00
2017-12-22T11:15:24.589Z,100.00
2017-12-22T11:17:52.103Z,100.00
2017-12-22T11:20:19.614Z,100.00
2017-12-22T11:22:47.128Z,100.00
2017-12-22T11:25:14.637Z,100.00
2017-12-22T11:27:42.536Z,100.00
2017-12-22T11:30:10.028Z,100.00
2017-12-22T11:32:38.271Z,100.00
2017-12-22T11:35:05.778Z,100.00
2017-12-22T11:37:33.284Z,100.00
2017-12-22T11:40:00.794Z,100.00
2017-12-22T11:42:28.329Z,100.00
2017-12-22T11:44:55.862Z,100.00
2017-12-22T11:47:24.298Z,100.00
2017-12-22T11:49:51.809Z,100.00
2017-12-22T11:52:19.317Z,100.00
2017-12-22T11:54:46.931Z,100.00
2017-12-22T11:57:14.420Z,100.00
2017-12-22T11:59:42.145Z,100.00
2017-12-22T12:02:09.662Z,100.00
2017-12-22T12:04:37.683Z,100.00
2017-12-22T12:07:06.041Z,100.00
2017-12-22T12:09:33.537Z,100.00
2017-12-22T12:12:01.613Z,100.00
2017-12-22T12:17:21.632Z,100.00
2017-12-22T12:19:49.212Z,100.00
2017-12-22T12:22:16.738Z,100.00
2017-12-22T12:24:44.477Z,100.00
2017-12-22T12:27:11.969Z,100.00
2017-12-22T12:29:39.482Z,100.00
2017-12-22T12:32:06.956Z,100.00
2017-12-22T12:34:35.100Z,100.00
2017-12-22T12:37:02.609Z,100.00
2017-12-22T12:39:30.122Z,100.00
2017-12-22T12:41:57.923Z,100.00
2017-12-22T12:44:25.457Z,100.00
2017-12-22T12:46:53.007Z,100.00
2017-12-22T12:49:20.587Z,100.00
2017-12-22T12:51:48.078Z,100.00
2017-12-22T12:54:15.595Z,100.00
2017-12-22T12:56:43.749Z,100.00
2017-12-22T12:59:11.735Z,100.00
2017-12-22T13:01:39.730Z,100.00
2017-12-22T13:04:07.267Z,100.00
2017-12-22T13:06:34.800Z,100.00
2017-12-22T13:09:02.313Z,100.00
2017-12-22T13:11:32.772Z,100.00
2017-12-22T13:14:00.292Z,100.00
2017-12-22T13:16:27.804Z,100.00
2017-12-22T13:18:55.346Z,100.00
2017-12-22T13:21:22.846Z,100.00
2017-12-22T13:23:51.133Z,100.00
2017-12-22T13:26:20.783Z,100.00
2017-12-22T13:28:49.105Z,100.00
2017-12-22T13:31:16.643Z,100.00
2017-12-22T13:33:44.617Z,100.00
2017-12-22T13:36:12.198Z,100.00
2017-12-22T13:38:39.692Z,100.00
2017-12-22T13:41:07.797Z,100.00
2017-12-22T13:43:35.302Z,100.00
2017-12-22T13:46:02.829Z,100.00
2017-12-22T13:48:30.388Z,100.00
2017-12-22T13:50:58.164Z,100.00
2017-12-22T13:53:25.685Z,100.00
2017-12-22T13:55:53.805Z,100.00
2017-12-22T13:58:21.320Z,100.00
2017-12-22T14:00:48.910Z,100.00
2017-12-22T14:03:16.439Z,100.00
2017-12-22T14:05:44.337Z,100.00
2017-12-22T14:08:11.868Z,100.00
2017-12-22T14:10:40.378Z,100.00
2017-12-22T14:13:07.887Z,100.00
2017-12-22T14:15:35.405Z,100.00
2017-12-22T14:18:03.540Z,100.00
2017-12-22T14:20:31.036Z,100.00
2017-12-22T14:22:58.560Z,100.00
2017-12-22T14:25:26.567Z,100.00
2017-12-22T14:27:54.067Z,100.00
2017-12-22T14:30:25.703Z,100.00
2017-12-22T14:32:53.483Z,100.00
2017-12-22T14:35:20.984Z,100.00
2017-12-22T14:37:48.553Z,100.00
2017-12-22T14:40:17.115Z,100.00
2017-12-22T14:42:44.629Z,100.00
2017-12-22T14:45:12.155Z,100.00
2017-12-22T14:47:39.669Z,100.00
2017-12-22T14:50:07.179Z,100.00
2017-12-22T14:52:34.688Z,100.00
2017-12-22T14:55:02.203Z,100.00
2017-12-22T14:57:29.958Z,100.00
2017-12-22T14:59:57.482Z,100.00
2017-12-22T15:02:26.364Z,100.00
2017-12-22T15:04:53.860Z,100.00
2017-12-22T15:07:21.391Z,100.00
2017-12-22T15:09:48.888Z,100.00
2017-12-22T15:12:16.401Z,100.00
2017-12-22T15:14:43.928Z,100.00
2017-12-22T15:17:11.472Z,100.00
2017-12-22T15:19:38.981Z,100.00
2017-12-22T15:22:06.499Z,100.00
2017-12-22T15:24:33.997Z,100.00
2017-12-22T15:27:02.132Z,100.00
2017-12-22T15:29:29.629Z,100.00
2017-12-22T15:31:57.136Z,100.00
2017-12-22T15:34:24.657Z,100.00
2017-12-22T15:36:52.168Z,100.00
2017-12-22T15:39:19.676Z,100.00
2017-12-22T15:41:47.177Z,100.00
2017-12-22T15:44:14.811Z,100.00
2017-12-22T15:46:42.336Z,100.00
2017-12-22T15:49:10.636Z,100.00
2017-12-22T15:51:38.153Z,100.00
2017-12-22T15:54:06.113Z,100.00
2017-12-22T15:56:33.613Z,100.00
2017-12-22T15:59:01.728Z,100.00
2017-12-22T16:01:30.048Z,100.00
2017-12-22T16:03:59.351Z,100.00
2017-12-22T16:06:27.759Z,100.00
2017-12-22T16:08:55.249Z,100.00
2017-12-22T16:11:23.861Z,100.00
2017-12-22T16:13:51.404Z,100.00
2017-12-22T16:16:19.590Z,100.00
2017-12-22T16:21:45.507Z,100.00
2017-12-22T16:24:13.032Z,100.00
2017-12-22T16:26:40.548Z,100.00
2017-12-22T16:29:10.213Z,100.00
2017-12-22T16:31:38.457Z,100.00
2017-12-22T16:34:06.633Z,100.00
2017-12-22T16:36:34.158Z,100.00
2017-12-22T16:42:17.850Z,100.00
2017-12-22T16:44:45.365Z,100.00
2017-12-22T16:47:14.879Z,100.00
2017-12-22T16:49:42.377Z,100.00
2017-12-22T16:52:10.427Z,100.00
2017-12-22T16:54:37.970Z,100.00
2017-12-22T16:57:05.830Z,100.00
2017-12-22T16:59:33.385Z,100.00
2017-12-22T17:02:00.894Z,100.00
2017-12-22T17:04:28.424Z,100.00
2017-12-22T17:06:55.916Z,100.00
2017-12-22T17:09:23.577Z,100.00
2017-12-22T17:11:51.101Z,100.00
2017-12-22T17:14:18.599Z,100.00
2017-12-22T17:16:46.579Z,100.00
2017-12-22T17:19:14.091Z,100.00
2017-12-22T17:21:41.570Z,100.00
2017-12-22T17:24:09.164Z,100.00
2017-12-22T17:26:36.713Z,100.00
2017-12-22T17:29:04.200Z,100.00
2017-12-22T17:31:31.703Z,100.00
2017-12-22T17:33:59.866Z,100.00
2017-12-22T17:36:27.750Z,100.00
2017-12-22T17:38:55.312Z,100.00
2017-12-22T17:41:22.852Z,100.00
2017-12-22T17:43:50.374Z,100.00
2017-12-22T17:46:17.888Z,100.00
2017-12-22T17:48:46.619Z,100.00
2017-12-22T17:51:14.842Z,100.00
2017-12-22T17:53:42.361Z,100.00
2017-12-22T17:56:09.848Z,100.00
2017-12-22T17:58:37.467Z,100.00
2017-12-22T18:01:05.055Z,100.00
2017-12-22T18:03:32.588Z,100.00
2017-12-22T18:06:00.085Z,100.00
2017-12-22T18:08:27.750Z,100.00
2017-12-22T18:10:55.284Z,100.00
2017-12-22T18:13:22.898Z,100.00
2017-12-22T18:15:50.388Z,100.00
2017-12-22T18:18:17.885Z,100.00
2017-12-22T18:20:45.413Z,100.00
2017-12-22T18:23:12.885Z,100.00
2017-12-22T18:25:40.383Z,100.00
2017-12-22T18:28:08.100Z,100.00
2017-12-22T18:30:35.616Z,100.00
2017-12-22T18:33:03.237Z,100.00
2017-12-22T18:35:30.754Z,100.00
2017-12-22T18:37:58.239Z,100.00
2017-12-22T18:40:25.718Z,100.00
2017-12-22T18:42:53.195Z,100.00
2017-12-22T18:45:20.695Z,100.00
2017-12-22T18:47:48.184Z,100.00
2017-12-22T18:50:15.795Z,100.00
2017-12-22T18:52:43.320Z,100.00
2017-12-22T18:55:10.838Z,100.00
2017-12-22T18:57:38.330Z,100.00
2017-12-22T19:00:07.427Z,100.00
2017-12-22T19:02:34.958Z,100.00
2017-12-22T19:05:02.450Z,100.00
2017-12-22T19:07:31.615Z,100.00
2017-12-22T19:09:59.241Z,100.00
2017-12-22T19:12:26.762Z,100.00
2017-12-22T19:14:54.297Z,100.00
2017-12-22T19:17:21.801Z,100.00
2017-12-22T19:19:49.805Z,100.00
2017-12-22T19:22:17.386Z,100.00
2017-12-22T19:24:45.032Z,100.00
2017-12-22T19:27:12.555Z,100.00
2017-12-22T19:29:40.070Z,100.00
2017-12-22T19:32:07.582Z,100.00
2017-12-22T19:34:36.878Z,100.00
2017-12-22T19:37:04.380Z,100.00
2017-12-22T19:39:32.057Z,100.00
2017-12-22T19:41:59.604Z,100.00
2017-12-22T19:44:27.117Z,100.00
2017-12-22T19:46:54.584Z,100.00
2017-12-22T19:49:22.092Z,100.00
2017-12-22T19:51:49.588Z,100.00
2017-12-22T19:54:17.244Z,100.00
2017-12-22T19:56:45.230Z,100.00
2017-12-22T19:59:12.717Z,100.00
2017-12-22T20:01:40.195Z,100.00
2017-12-22T20:04:07.705Z,100.00
2017-12-22T20:06:35.219Z,100.00
2017-12-22T20:09:02.777Z,100.00
2017-12-22T20:11:30.281Z,100.00
2017-12-22T20:13:57.799Z,100.00
2017-12-22T20:16:25.284Z,100.00
2017-12-22T20:18:52.786Z,100.00
2017-12-22T20:21:20.302Z,100.00
2017-12-22T20:23:47.901Z,100.00
2017-12-22T20:26:15.360Z,100.00
2017-12-22T20:28:42.841Z,100.00
2017-12-22T20:31:10.330Z,100.00
2017-12-22T20:33:37.825Z,100.00
2017-12-22T20:36:05.348Z,100.00
2017-12-22T20:38:32.833Z,100.00
2017-12-22T20:41:00.324Z,100.00
2017-12-22T20:43:27.818Z,100.00
2017-12-22T20:45:55.303Z,100.00
2017-12-22T20:48:22.774Z,100.00
2017-12-22T20:50:50.308Z,100.00
2017-12-22T20:53:17.825Z,100.00
2017-12-22T20:55:45.330Z,100.00
2017-12-22T20:58:12.823Z,100.00
2017-12-22T21:00:40.301Z,100.00
2017-12-22T21:03:07.786Z,99.78
2017-12-22T21:05:35.254Z,99.70
2017-12-22T21:08:02.755Z,99.81
2017-12-22T21:10:30.253Z,99.60
2017-12-22T21:12:57.742Z,99.93
2017-12-22T21:15:25.218Z,99.74
2017-12-22T21:17:52.724Z,99.70
2017-12-22T21:20:20.211Z,99.20
2017-12-22T21:22:47.699Z,99.07
2017-12-22T21:25:15.206Z,99.08
2017-12-22T21:27:42.709Z,99.52
2017-12-22T21:30:10.229Z,99.19
2017-12-22T21:32:37.702Z,99.37
2017-12-22T21:35:06.065Z,99.92
2017-12-22T21:37:33.545Z,99.65
2017-12-22T21:40:04.261Z,100.00
2017-12-22T21:42:31.743Z,99.82
2017-12-22T21:44:59.282Z,100.00
2017-12-22T21:47:26.762Z,100.00
2017-12-22T21:49:54.261Z,100.00
2017-12-22T21:52:21.756Z,100.00
2017-12-22T21:54:49.257Z,100.00
2017-12-22T21:57:17.860Z,100.00
2017-12-22T21:59:45.379Z,100.00
2017-12-22T22:02:19.676Z,100.00
2017-12-22T22:04:47.158Z,100.00
2017-12-22T22:07:14.629Z,100.00
2017-12-22T22:09:42.112Z,100.00
2017-12-22T22:12:09.596Z,100.00
2017-12-22T22:14:37.684Z,100.00
2017-12-22T22:17:05.411Z,100.00
2017-12-22T22:19:32.928Z,100.00
2017-12-22T22:22:00.441Z,100.00
2017-12-22T22:24:27.929Z,100.00
2017-12-22T22:26:55.420Z,100.00
2017-12-22T22:29:22.893Z,100.00
2017-12-22T22:31:50.371Z,100.00
2017-12-22T22:34:17.899Z,100.00
2017-12-22T22:36:45.446Z,100.00
2017-12-22T22:39:13.897Z,100.00
2017-12-22T22:41:41.403Z,100.00
2017-12-22T22:44:08.901Z,100.00
2017-12-22T22:46:36.421Z,100.00
2017-12-22T22:49:03.922Z,100.00
2017-12-22T22:51:31.479Z,100.00
2017-12-22T22:53:59.013Z,100.00
2017-12-22T22:56:26.512Z,100.00
2017-12-22T22:58:54.034Z,100.00
2017-12-22T23:01:21.550Z,100.00
2017-12-22T23:03:49.037Z,100.00
2017-12-22T23:06:16.546Z,100.00
2017-12-22T23:08:44.036Z,100.00
2017-12-22T23:11:11.721Z,100.00
2017-12-22T23:13:39.481Z,100.00
2017-12-22T23:16:07.018Z,100.00
2017-12-22T23:18:34.542Z,100.00
2017-12-22T23:21:02.049Z,100.00
2017-12-22T23:23:29.537Z,100.00
2017-12-22T23:25:57.034Z,100.00
2017-12-22T23:28:24.517Z,100.00
2017-12-22T23:30:52.005Z,100.00
2017-12-22T23:33:19.524Z,100.00
2017-12-22T23:35:47.030Z,100.00
2017-12-22T23:38:15.032Z,100.00
2017-12-22T23:40:42.528Z,100.00
2017-12-22T23:43:10.960Z,100.00
2017-12-22T23:45:38.440Z,100.00
2017-12-22T23:48:05.940Z,100.00
2017-12-22T23:50:33.458Z,100.00
2017-12-22T23:53:00.938Z,100.00
2017-12-22T23:55:31.268Z,100.00
2017-12-22T23:57:58.767Z,100.00
